Latest Weather Observations for South Johnstone

IDQ60801

Issued at 9:22 am EST Tuesday 7 December 2021 (issued every 10 minutes, with the page automatically refreshed every 10 minutes)

About weather observations | Map of weather stations | Latest weather observations for QLD | Other Formats
Station Details ID: 032037 Name: SOUTH JOHNSTONE EXP STN Lat: -17.61 Lon: 146.00 Height: 18.3 m
Data from the previous 72 hours. | See also: Recent months at South Johnstone
Date/Time
EST
Temp
°C
App
Temp
°C
Dew
Point
°C
Rel
Hum
%
Delta-T
°C
Wind Press
QNH
hPa
Press
MSL
hPa
Rain since
9am
mm
Dir  Spd
km/h
Gust
km/h
Spd
kts
Gust
kts
07/09:00am 29.0 31.8 23.7 73 3.7 SSE 15 24 8 13 1011.7 1011.6 1.6
07/08:30am 28.5 31.3 23.6 75 3.4 SSE 15 22 8 12 1011.6 1011.5 1.6
07/08:00am 27.6 31.6 23.8 80 2.6 SSE 9 15 5 8 1011.4 1011.3 1.6
07/07:30am 27.8 32.4 24.2 81 2.5 SSW 7 13 4 7 1011.1 1011.0 1.6
07/07:00am 24.8 29.2 23.4 92 1.0 WSW 6 11 3 6 1010.9 1010.8 1.6
07/06:30am 23.7 28.5 22.9 95 0.5 WNW 2 7 1 4 1010.8 1010.7 1.6
07/06:00am 23.3 28.4 22.6 96 0.5 CALM 0 0 0 0 1010.5 1010.4 1.6
07/05:30am 23.3 28.0 22.6 96 0.5 WNW 2 9 1 5 1010.1 1010.0 1.4
07/05:00am 23.2 28.3 22.7 97 0.3 CALM 0 6 0 3 1010.0 1009.9 1.4
07/04:30am 23.2 27.4 22.5 96 0.5 WNW 4 9 2 5 1009.5 1009.4 1.4
07/04:00am 23.3 27.2 22.6 96 0.5 W 6 9 3 5 1009.2 1009.1 1.4
07/03:30am 23.2 27.4 22.5 96 0.5 WNW 4 11 2 6 1009.3 1009.2 1.4
07/03:00am 23.3 28.0 22.6 96 0.5 NW 2 7 1 4 1009.3 1009.2 1.4
07/02:30am 23.4 28.1 22.7 96 0.5 W 2 9 1 5 1009.4 1009.3 1.4
07/02:00am 23.4 28.5 22.7 96 0.5 CALM 0 2 0 1 1009.4 1009.3 1.4
07/01:30am 23.4 28.1 22.6 95 0.5 NW 2 6 1 3 1009.4 1009.3 1.4
07/01:00am 23.7 28.2 23.0 96 0.5 W 4 11 2 6 1009.9 1009.8 1.4
07/12:30am 23.5 27.5 22.7 95 0.5 W 6 9 3 5 1010.0 1009.9 1.4
07/12:00am 23.8 28.7 23.0 95 0.5 W 2 7 1 4 1010.2 1010.1 1.4
 
Date/Time
EST
Temp
°C
App
Temp
°C
Dew
Point
°C
Rel
Hum
%
Delta-T
°C
Wind Press
QNH
hPa
Press
MSL
hPa
Rain since
9am
mm
Dir  Spd
km/h
Gust
km/h
Spd
kts
Gust
kts
06/11:30pm 23.7 28.4 22.7 94 0.7 NW 2 6 1 3 1010.6 1010.5 1.4
06/11:00pm 23.9 29.0 22.7 93 0.8 CALM 0 0 0 0 1010.5 1010.4 1.4
06/10:30pm 24.4 28.2 22.8 91 1.1 WSW 7 11 4 6 1010.7 1010.6 1.4
06/10:00pm 24.3 28.5 23.1 93 0.8 W 6 11 3 6 1010.6 1010.5 1.4
06/09:30pm 24.7 29.8 23.3 92 1.0 W 2 7 1 4 1010.5 1010.4 1.4
06/09:00pm 26.4 30.6 23.1 82 2.2 SSW 6 9 3 5 1010.3 1010.2 1.4
06/08:30pm 26.7 30.5 22.8 79 2.6 SSW 7 11 4 6 1010.3 1010.2 1.4
06/08:00pm 26.8 30.5 22.6 78 2.8 SSW 7 15 4 8 1010.2 1010.1 1.4
06/07:30pm 26.5 30.2 22.6 79 2.6 S 7 13 4 7 1009.9 1009.8 1.4
06/07:00pm 27.0 30.7 22.6 77 3.0 S 7 13 4 7 1009.8 1009.7 1.4
06/06:30pm 27.3 30.9 23.1 78 2.9 SSE 9 13 5 7 1009.5 1009.4 1.4
06/06:00pm 27.7 31.0 22.6 74 3.5 SSE 9 17 5 9 1009.1 1009.0 1.4
06/05:30pm 28.4 30.8 22.9 72 3.7 SSE 15 22 8 12 1008.8 1008.7 1.4
06/05:00pm 28.5 31.4 23.2 73 3.6 SSE 13 22 7 12 1008.4 1008.3 1.4
06/04:30pm 29.4 31.5 23.1 69 4.3 SSE 17 28 9 15 1008.3 1008.2 1.4
06/04:00pm 29.0 31.9 23.9 74 3.5 S 15 28 8 15 1008.1 1008.0 1.4
06/03:30pm 28.9 32.2 23.8 74 3.5 S 13 22 7 12 1008.1 1008.0 1.4
06/03:00pm 27.7 31.4 24.5 83 2.2 SSE 13 22 7 12 1008.5 1008.4 1.4
06/02:30pm 28.8 31.7 23.2 71 3.8 S 13 28 7 15 1008.8 1008.7 0.2
06/02:00pm 29.3 30.8 23.0 69 4.3 SSE 20 30 11 16 1008.8 1008.7 0.0
06/01:30pm 29.9 32.5 23.3 67 4.5 SE 15 26 8 14 1008.7 1008.6 0.0
06/01:00pm 29.8 32.2 23.7 70 4.2 SE 17 28 9 15 1009.0 1008.9 0.0
06/12:30pm 30.3 32.8 23.2 65 4.9 SE 15 28 8 15 1009.4 1009.3 0.0
06/12:00pm 30.2 32.0 22.6 63 5.2 SE 17 28 9 15 1009.5 1009.4 0.0
06/11:30am 29.3 31.6 22.8 68 4.4 SSE 15 24 8 13 1009.8 1009.7 0.0
06/11:00am 30.0 32.7 22.9 65 4.9 SSE 13 20 7 11 1009.9 1009.8 0.0
06/10:30am 29.6 32.1 23.1 68 4.5 SSE 15 26 8 14 1010.3 1010.2 0.0
06/10:00am 29.9 32.7 22.3 63 5.2 SE 11 24 6 13 1010.4 1010.3 0.0
06/09:30am 30.0 33.7 23.2 67 4.7 SSE 9 17 5 9 1010.6 1010.5 0.0
06/09:00am 28.7 32.3 23.1 71 3.8 SSE 9 17 5 9 1010.8 1010.7 0.0
06/08:30am 28.8 32.5 23.2 71 3.8 S 9 13 5 7 1010.6 1010.5 0.0
06/08:00am 27.8 33.1 23.0 75 3.3 CALM 0 4 0 2 1010.5 1010.4 0.0
06/07:30am 25.8 31.0 22.9 84 2.0 CALM 0 0 0 0 1010.6 1010.5 0.0
06/07:00am 23.2 28.0 22.2 94 0.7 CALM 0 0 0 0 1010.3 1010.2 0.0
06/06:30am 22.3 26.8 21.5 95 0.5 CALM 0 6 0 3 1009.8 1009.7 0.0
06/06:00am 21.8 25.4 21.3 97 0.3 WNW 4 9 2 5 1009.4 1009.3 0.0
06/05:30am 21.8 25.8 21.3 97 0.3 W 2 7 1 4 1009.0 1008.9 0.0
06/05:00am 21.6 25.4 20.9 96 0.5 WNW 2 6 1 3 1008.7 1008.6 0.0
06/04:30am 21.7 25.5 21.0 96 0.5 W 2 6 1 3 1008.6 1008.5 0.0
06/04:00am 21.8 25.7 21.1 96 0.5 W 2 6 1 3 1008.4 1008.3 0.0
06/03:30am 22.0 26.0 21.3 96 0.5 WNW 2 7 1 4 1008.3 1008.2 0.0
06/03:00am 22.2 25.5 21.4 95 0.5 WNW 6 7 3 4 1008.5 1008.4 0.0
06/02:30am 22.3 25.3 21.3 94 0.7 W 7 11 4 6 1008.5 1008.4 0.0
06/02:00am 22.4 26.4 21.4 94 0.7 WNW 2 7 1 4 1008.6 1008.5 0.0
06/01:30am 22.3 25.5 21.3 94 0.7 W 6 11 3 6 1009.1 1009.0 0.0
06/01:00am 22.3 26.3 21.3 94 0.7 NW 2 7 1 4 1009.3 1009.2 0.0
06/12:30am 22.5 25.8 21.5 94 0.7 WNW 6 7 3 4 1009.5 1009.4 0.0
06/12:00am 22.4 25.1 21.4 94 0.7 WSW 9 13 5 7 1009.9 1009.8 0.0
 
Date/Time
EST
Temp
°C
App
Temp
°C
Dew
Point
°C
Rel
Hum
%
Delta-T
°C
Wind Press
QNH
hPa
Press
MSL
hPa
Rain since
9am
mm
Dir  Spd
km/h
Gust
km/h
Spd
kts
Gust
kts
05/11:30pm 22.7 26.5 21.7 94 0.7 WNW 4 7 2 4 1010.0 1009.9 0.0
05/11:00pm 22.6 26.0 21.6 94 0.7 WSW 6 13 3 7 1010.0 1009.9 0.0
05/10:30pm 22.9 27.0 21.5 92 0.9 W 2 11 1 6 1010.1 1010.0 0.0
05/10:00pm 23.2 27.9 22.0 93 0.8 CALM 0 6 0 3 1009.8 1009.7 0.0
05/09:30pm 23.4 28.0 21.8 91 1.1 CALM 0 0 0 0 1009.5 1009.4 0.0
05/09:00pm 24.0 27.3 21.9 88 1.4 WSW 7 9 4 5 1009.2 1009.1 0.0
05/08:30pm 24.5 29.6 22.6 89 1.3 CALM 0 0 0 0 1009.1 1009.0 0.0
05/08:00pm 24.9 30.0 22.6 87 1.5 CALM 0 0 0 0 1008.9 1008.8 0.0
05/07:30pm 25.6 30.1 21.5 78 2.7 CALM 0 6 0 3 1008.6 1008.5 0.0
05/07:00pm 26.2 30.7 21.6 76 3.1 CALM 0 0 0 0 1008.6 1008.5 0.0
05/06:30pm 27.1 30.6 21.8 73 3.5 SSE 6 11 3 6 1008.4 1008.3 0.0
05/06:00pm 28.1 31.1 21.9 69 4.2 SE 9 19 5 10 1008.3 1008.2 0.0
05/05:30pm 28.8 30.6 21.1 63 5.1 SE 13 20 7 11 1008.0 1007.9 0.0
05/05:00pm 29.8 31.9 21.7 61 5.5 SE 13 24 7 13 1007.8 1007.7 0.0
05/04:30pm 30.3 32.1 21.1 58 6.2 SSE 13 22 7 12 1007.8 1007.7 0.0
05/04:00pm 30.4 31.0 19.4 51 7.2 SSE 15 24 8 13 1007.9 1007.8 0.0
05/03:30pm 31.1 33.2 21.0 55 6.8 SE 11 22 6 12 1007.9 1007.8 0.0
05/03:00pm 30.6 31.4 19.9 52 7.1 SE 15 24 8 13 1008.3 1008.2 0.0
05/02:30pm 30.8 31.1 19.5 51 7.4 SE 17 30 9 16 1008.5 1008.4 0.0
05/02:00pm 31.0 32.4 20.3 53 7.1 SSE 13 24 7 13 1008.8 1008.7 0.0
05/01:30pm 30.9 32.1 21.4 57 6.4 SSE 17 28 9 15 1009.1 1009.0 0.0
05/01:00pm 31.4 32.5 20.4 52 7.3 SE 15 26 8 14 1009.3 1009.2 0.0
05/12:30pm 30.9 31.6 20.5 54 6.9 SE 17 26 9 14 1009.5 1009.4 0.0
05/12:00pm 31.0 32.5 21.2 56 6.6 SE 15 24 8 13 1009.5 1009.4 0.0
05/11:30am 30.6 32.4 21.9 59 5.9 SE 15 28 8 15 1009.7 1009.6 0.0
05/11:00am 30.7 32.9 21.8 59 6.0 SE 13 28 7 15 1009.8 1009.7 0.0
05/10:30am 30.6 32.6 22.2 61 5.7 SE 15 24 8 13 1010.2 1010.1 0.0
05/10:00am 29.7 32.1 22.2 64 5.1 SSE 13 24 7 13 1010.3 1010.2 0.0
05/09:30am 29.2 31.3 22.4 66 4.6 SSE 15 24 8 13 1010.3 1010.2 0.0
05/09:00am 28.8 32.0 22.3 68 4.4 S 9 13 5 7 1010.2 1010.1 0.0
05/08:30am 29.3 33.5 23.5 71 4.0 S 7 15 4 8 1010.2 1010.1 0.0
05/08:00am 27.4 31.1 22.6 75 3.3 SW 7 9 4 5 1010.1 1010.0 0.0
05/07:30am 25.9 29.5 22.4 81 2.4 WSW 7 11 4 6 1010.0 1009.9 0.0
05/07:00am 23.9 26.8 21.8 88 1.4 WSW 9 15 5 8 1010.0 1009.9 0.0
05/06:30am 22.9 26.7 21.7 93 0.8 W 4 9 2 5 1009.8 1009.7 0.0
05/06:00am 21.8 24.7 21.1 96 0.5 WSW 7 11 4 6 1009.3 1009.2 0.0
05/05:30am 21.6 23.7 20.9 96 0.5 WSW 11 13 6 7 1008.9 1008.8 0.0
05/05:00am 21.6 25.4 20.9 96 0.5 NW 2 9 1 5 1008.8 1008.7 0.0
05/04:30am 21.8 24.9 21.1 96 0.5 W 6 9 3 5 1008.5 1008.4 0.0
05/04:00am 21.9 24.9 21.2 96 0.5 WSW 7 11 4 6 1008.4 1008.3 0.0
05/03:30am 22.0 25.0 21.2 95 0.5 WSW 7 13 4 7 1008.4 1008.3 0.0
05/03:00am 22.0 24.6 21.2 95 0.5 WSW 9 13 5 7 1008.5 1008.4 0.0
05/02:30am 22.1 25.3 21.3 95 0.5 W 6 11 3 6 1008.7 1008.6 0.0
05/02:00am 22.2 25.9 21.4 95 0.5 W 4 9 2 5 1008.7 1008.6 0.0
05/01:30am 22.3 25.6 21.5 95 0.5 W 6 11 3 6 1008.9 1008.8 0.0
05/01:00am 22.6 25.8 21.6 94 0.7 W 7 11 4 6 1009.3 1009.2 0.0
05/12:30am 22.6 26.0 21.6 94 0.7 W 6 11 3 6 1009.6 1009.5 0.0
05/12:00am 23.0 26.1 22.2 95 0.5 WSW 9 13 5 7 1009.9 1009.8 0.0
 
Date/Time
EST
Temp
°C
App
Temp
°C
Dew
Point
°C
Rel
Hum
%
Delta-T
°C
Wind Press
QNH
hPa
Press
MSL
hPa
Rain since
9am
mm
Dir  Spd
km/h
Gust
km/h
Spd
kts
Gust
kts
04/11:30pm 23.1 27.1 22.1 94 0.7 W 4 9 2 5 1010.1 1010.0 0.0
04/11:00pm 23.5 28.0 22.3 93 0.8 WNW 2 7 1 4 1010.5 1010.4 0.0
04/10:30pm 23.8 28.5 22.6 93 0.8 WNW 2 6 1 3 1010.5 1010.4 0.0
04/10:00pm 24.0 28.7 22.6 92 0.9 WSW 2 6 1 3 1010.4 1010.3 0.0
04/09:30pm 24.3 28.3 22.7 91 1.1 WSW 6 9 3 5 1010.3 1010.2 0.0
04/09:00pm 24.8 29.6 22.9 89 1.3 W 2 7 1 4 1010.1 1010.0 0.0
04/08:30pm 25.8 29.3 22.9 84 2.0 SW 9 13 5 7 1009.9 1009.8 0.0
04/08:00pm 25.9 29.5 23.0 84 2.0 WSW 9 9 5 5 1009.6 1009.5 0.0
04/07:30pm 26.3 31.7 23.2 83 2.1 CALM 0 0 0 0 1009.4 1009.3 0.0
04/07:00pm 27.7 30.7 22.0 71 3.8 SSW 9 15 5 8 1009.5 1009.4 0.0
04/06:30pm 27.5 32.1 22.4 73 3.4 SE 2 9 1 5 1009.2 1009.1 0.0
04/06:00pm 28.5 31.4 22.5 70 4.1 SE 11 17 6 9 1009.2 1009.1 0.0
04/05:30pm 29.3 31.7 22.3 66 4.7 SE 13 22 7 12 1008.9 1008.8 0.0
04/05:00pm 29.8 32.2 22.3 64 5.1 SSE 13 22 7 12 1008.7 1008.6 0.0
04/04:30pm 30.1 32.4 22.8 65 5.0 SE 15 26 8 14 1008.6 1008.5 0.0
04/04:00pm 30.7 32.6 22.8 62 5.4 SE 17 28 9 15 1008.5 1008.4 0.0
04/03:30pm 31.0 32.9 22.0 58 6.1 SE 15 28 8 15 1008.5 1008.4 0.0
04/03:00pm 31.1 32.8 22.4 60 5.9 SE 17 26 9 14 1008.9 1008.8 0.0
04/02:30pm 31.3 32.8 22.0 57 6.3 SE 17 28 9 15 1009.2 1009.1 0.0
04/02:00pm 31.6 32.8 21.5 55 6.8 SSE 17 28 9 15 1009.6 1009.5 0.0
04/01:30pm 31.9 33.3 21.1 52 7.3 SE 15 24 8 13 1010.0 1009.9 0.0
04/01:00pm 31.8 33.5 21.0 52 7.2 SSE 13 26 7 14 1010.4 1010.3 0.0
04/12:30pm 31.8 34.7 23.1 60 6.0 SSE 13 20 7 11 1010.7 1010.6 0.0
04/12:00pm 31.6 34.5 23.2 61 5.8 SSE 13 22 7 12 1010.9 1010.8 0.0
04/11:30am 31.5 35.1 24.4 66 5.0 SE 13 22 7 12 1011.3 1011.2 0.0
04/11:00am 30.9 33.2 22.8 62 5.6 SSE 15 24 8 13 1011.6 1011.5 0.0
04/10:30am 30.2 32.6 22.9 65 5.0 SSE 15 24 8 13 1011.8 1011.7 0.0
04/10:00am 30.4 33.5 22.8 64 5.2 SSE 11 20 6 11 1011.9 1011.8 0.0
04/09:30am 30.4 33.5 23.6 67 4.7 SSE 13 22 7 12 1011.9 1011.8 0.0

Other formats

Comma delimited format used in spreadsheet applications
http://www.bom.gov.au/fwo/IDQ60801/IDQ60801.95292.axf

JavaScript Object Notation format (JSON) in row-major order
http://www.bom.gov.au/fwo/IDQ60801/IDQ60801.95292.json

Data quality

Most of these data are generated automatically and are frequently updated. Quality checks on data are not normally performed. It is possible for incorrect values to appear. Refer to information at About Latest Weather Observations and please check the disclaimer before using these data.